Time,TemperatureF,DewpointF,PressureIn,WindDirection,WindDirectionDegrees,WindSpeedMPH,WindSpeedGustMPH,Humidity,HourlyPrecipIn,Conditions,Clouds,dailyrainin,SoftwareType,DateUTC
2013-04-28 00:00:00,47.9,37.8,30.30,South,175,0.0,0.0,68,0.00,,,0.00,Wunderground v.1.15,2013-04-28 04:00:00,
2013-04-28 00:02:00,47.8,37.7,30.30,South,175,0.0,0.0,68,0.00,,,0.00,Wunderground v.1.15,2013-04-28 04:02:00,
2013-04-28 00:06:00,47.9,37.1,30.30,South,175,0.0,0.0,66,0.00,,,0.00,Wunderground v.1.15,2013-04-28 04:06:00,
2013-04-28 00:08:00,47.7,37.7,30.30,South,175,0.0,0.0,68,0.00,,,0.00,Wunderground v.1.15,2013-04-28 04:08:00,
2013-04-28 00:12:00,47.3,37.3,30.31,South,175,0.0,0.0,68,0.00,,,0.00,Wunderground v.1.15,2013-04-28 04:12:00,
2013-04-28 00:14:00,47.2,36.8,30.30,South,175,0.0,0.0,67,0.00,,,0.00,Wunderground v.1.15,2013-04-28 04:14:00,
2013-04-28 00:16:00,47.4,37.0,30.31,South,175,0.0,0.0,67,0.00,,,0.00,Wunderground v.1.15,2013-04-28 04:16:00,
2013-04-28 00:18:00,47.8,37.0,30.30,South,175,0.0,0.0,66,0.00,,,0.00,Wunderground v.1.15,2013-04-28 04:18:00,
2013-04-28 00:22:00,48.3,37.5,30.31,South,175,0.0,0.0,66,0.00,,,0.00,Wunderground v.1.15,2013-04-28 04:22:00,
2013-04-28 00:24:00,48.4,37.2,30.31,South,175,0.0,0.0,65,0.00,,,0.00,Wunderground v.1.15,2013-04-28 04:24:00,
2013-04-28 00:28:00,47.9,37.5,30.31,South,175,0.0,0.0,67,0.00,,,0.00,Wunderground v.1.15,2013-04-28 04:28:00,
2013-04-28 00:30:00,47.9,37.1,30.31,South,175,0.0,0.0,66,0.00,,,0.00,Wunderground v.1.15,2013-04-28 04:30:00,
2013-04-28 00:32:00,48.2,37.4,30.31,South,175,0.0,0.0,66,0.00,,,0.00,Wunderground v.1.15,2013-04-28 04:32:00,
2013-04-28 00:34:00,48.4,37.6,30.31,South,175,0.0,0.0,66,0.00,,,0.00,Wunderground v.1.15,2013-04-28 04:34:00,
2013-04-28 00:38:00,48.6,37.4,30.30,South,175,0.0,0.0,65,0.00,,,0.00,Wunderground v.1.15,2013-04-28 04:38:00,
2013-04-28 00:40:00,48.6,37.7,30.30,North,32767,-999.0,0.0,66,0.00,,,0.00,Wunderground v.1.15,2013-04-28 04:40:00,
2013-04-28 00:44:00,48.0,37.2,30.31,North,32767,-999.0,0.0,66,0.00,,,0.00,Wunderground v.1.15,2013-04-28 04:44:00,
2013-04-28 00:46:00,47.9,37.5,30.31,North,32767,-999.0,0.0,67,0.00,,,0.00,Wunderground v.1.15,2013-04-28 04:46:00,
2013-04-28 00:48:00,47.9,37.5,30.31,North,32767,-999.0,0.0,67,0.00,,,0.00,Wunderground v.1.15,2013-04-28 04:48:00,
2013-04-28 00:52:00,48.6,37.4,30.31,North,32767,-999.0,0.0,65,0.00,,,0.00,Wunderground v.1.15,2013-04-28 04:52:00,
2013-04-28 00:54:00,48.8,37.6,30.30,North,32767,-999.0,0.0,65,0.00,,,0.00,Wunderground v.1.15,2013-04-28 04:54:00,
2013-04-28 00:56:00,48.9,38.0,30.31,North,32767,-999.0,0.0,66,0.00,,,0.00,Wunderground v.1.15,2013-04-28 04:56:00,
2013-04-28 01:00:00,47.8,37.4,30.31,North,32767,-999.0,0.0,67,0.00,,,0.00,Wunderground v.1.15,2013-04-28 05:00:00,
2013-04-28 01:02:00,47.7,37.3,30.30,North,32767,-999.0,0.0,67,0.00,,,0.00,Wunderground v.1.15,2013-04-28 05:02:00,
2013-04-28 01:06:00,48.2,37.4,30.31,North,32767,-999.0,0.0,66,0.00,,,0.00,Wunderground v.1.15,2013-04-28 05:06:00,
2013-04-28 01:08:00,48.4,37.6,30.31,North,32767,-999.0,0.0,66,0.00,,,0.00,Wunderground v.1.15,2013-04-28 05:08:00,
2013-04-28 01:10:00,48.3,37.5,30.31,North,32767,-999.0,0.0,66,0.00,,,0.00,Wunderground v.1.15,2013-04-28 05:10:00,
2013-04-28 01:14:00,48.1,37.7,30.30,North,32767,-999.0,0.0,67,0.00,,,0.00,Wunderground v.1.15,2013-04-28 05:14:00,
2013-04-28 01:20:00,48.1,37.3,30.30,North,32767,-999.0,0.0,66,0.00,,,0.00,Wunderground v.1.15,2013-04-28 05:20:00,
2013-04-28 01:22:00,48.2,37.4,30.30,North,32767,-999.0,0.0,66,0.00,,,0.00,Wunderground v.1.15,2013-04-28 05:22:00,
2013-04-28 01:24:00,48.3,37.1,30.30,North,32767,-999.0,0.0,65,0.00,,,0.00,Wunderground v.1.15,2013-04-28 05:24:00,
2013-04-28 01:26:00,48.2,37.4,30.30,North,32767,-999.0,0.0,66,0.00,,,0.00,Wunderground v.1.15,2013-04-28 05:26:00,
2013-04-28 01:32:00,47.8,37.4,30.30,North,32767,-999.0,0.0,67,0.00,,,0.00,Wunderground v.1.15,2013-04-28 05:32:00,
2013-04-28 01:34:00,47.7,37.3,30.30,North,32767,-999.0,0.0,67,0.00,,,0.00,Wunderground v.1.15,2013-04-28 05:34:00,
2013-04-28 01:38:00,47.4,37.0,30.30,North,32767,-999.0,0.0,67,0.00,,,0.00,Wunderground v.1.15,2013-04-28 05:38:00,
2013-04-28 01:40:00,47.6,37.2,30.30,North,32767,-999.0,0.0,67,0.00,,,0.00,Wunderground v.1.15,2013-04-28 05:40:00,
2013-04-28 01:42:00,47.6,37.9,30.30,North,32767,-999.0,0.0,69,0.00,,,0.00,Wunderground v.1.15,2013-04-28 05:42:00,
2013-04-28 01:44:00,46.8,37.9,30.30,North,32767,-999.0,0.0,71,0.00,,,0.00,Wunderground v.1.15,2013-04-28 05:44:00,
2013-04-28 01:46:00,46.1,37.9,30.30,North,32767,-999.0,0.0,73,0.00,,,0.00,Wunderground v.1.15,2013-04-28 05:46:00,
2013-04-28 01:48:00,45.8,37.3,30.29,North,32767,-999.0,0.0,72,0.00,,,0.00,Wunderground v.1.15,2013-04-28 05:48:00,
2013-04-28 01:50:00,45.6,37.1,30.30,North,32767,-999.0,0.0,72,0.00,,,0.00,Wunderground v.1.15,2013-04-28 05:50:00,
2013-04-28 01:54:00,45.5,37.0,30.30,North,32767,-999.0,0.0,72,0.00,,,0.00,Wunderground v.1.15,2013-04-28 05:54:00,
2013-04-28 01:56:00,45.8,36.6,30.29,North,32767,-999.0,0.0,70,0.00,,,0.00,Wunderground v.1.15,2013-04-28 05:56:00,
2013-04-28 01:58:00,46.1,36.9,30.29,North,32767,-999.0,0.0,70,0.00,,,0.00,Wunderground v.1.15,2013-04-28 05:58:00,
2013-04-28 02:02:00,45.7,36.8,30.29,North,32767,-999.0,0.0,71,0.00,,,0.00,Wunderground v.1.15,2013-04-28 06:02:00,
2013-04-28 02:04:00,45.0,36.5,30.29,North,32767,-999.0,0.0,72,0.00,,,0.00,Wunderground v.1.15,2013-04-28 06:04:00,
2013-04-28 02:08:00,44.4,37.0,30.29,North,32767,-999.0,0.0,75,0.00,,,0.00,Wunderground v.1.15,2013-04-28 06:08:00,
2013-04-28 02:10:00,44.3,37.2,30.29,North,32767,-999.0,0.0,76,0.00,,,0.00,Wunderground v.1.15,2013-04-28 06:10:00,
2013-04-28 02:12:00,44.4,37.3,30.29,North,32767,-999.0,0.0,76,0.00,,,0.00,Wunderground v.1.15,2013-04-28 06:12:00,
2013-04-28 02:18:00,44.3,37.2,30.28,North,32767,-999.0,0.0,76,0.00,,,0.00,Wunderground v.1.15,2013-04-28 06:18:00,
2013-04-28 02:20:00,44.4,37.3,30.28,North,32767,-999.0,0.0,76,0.00,,,0.00,Wunderground v.1.15,2013-04-28 06:20:00,
2013-04-28 02:22:00,44.5,37.1,30.28,North,32767,-999.0,0.0,75,0.00,,,0.00,Wunderground v.1.15,2013-04-28 06:22:00,
2013-04-28 02:24:00,44.7,36.9,30.28,North,32767,-999.0,0.0,74,0.00,,,0.00,Wunderground v.1.15,2013-04-28 06:24:00,
2013-04-28 02:26:00,44.9,37.1,30.28,North,32767,-999.0,0.0,74,0.00,,,0.00,Wunderground v.1.15,2013-04-28 06:26:00,
2013-04-28 02:28:00,44.7,36.9,30.28,North,32767,-999.0,0.0,74,0.00,,,0.00,Wunderground v.1.15,2013-04-28 06:28:00,
2013-04-28 02:30:00,44.7,36.9,30.28,North,32767,-999.0,0.0,74,0.00,,,0.00,Wunderground v.1.15,2013-04-28 06:30:00,
2013-04-28 02:32:00,44.9,37.5,30.28,North,32767,-999.0,0.0,75,0.00,,,0.00,Wunderground v.1.15,2013-04-28 06:32:00,
2013-04-28 02:34:00,45.0,37.2,30.28,North,32767,-999.0,0.0,74,0.00,,,0.00,Wunderground v.1.15,2013-04-28 06:34:00,
2013-04-28 02:36:00,45.0,37.2,30.28,North,32767,-999.0,0.0,74,0.00,,,0.00,Wunderground v.1.15,2013-04-28 06:36:00,
2013-04-28 02:40:00,44.5,37.1,30.28,North,32767,-999.0,0.0,75,0.00,,,0.00,Wunderground v.1.15,2013-04-28 06:40:00,
2013-04-28 02:42:00,44.5,37.1,30.28,North,32767,-999.0,0.0,75,0.00,,,0.00,Wunderground v.1.15,2013-04-28 06:42:00,
2013-04-28 02:44:00,44.6,37.2,30.28,North,32767,-999.0,0.0,75,0.00,,,0.00,Wunderground v.1.15,2013-04-28 06:44:00,
2013-04-28 02:46:00,44.1,37.0,30.27,North,32767,-999.0,0.0,76,0.00,,,0.00,Wunderground v.1.15,2013-04-28 06:46:00,
2013-04-28 02:48:00,43.7,37.0,30.27,North,32767,-999.0,0.0,77,0.00,,,0.00,Wunderground v.1.15,2013-04-28 06:48:00,
2013-04-28 02:52:00,43.8,37.4,30.27,North,32767,-999.0,0.0,78,0.00,,,0.00,Wunderground v.1.15,2013-04-28 06:52:00,
2013-04-28 02:54:00,43.8,37.1,30.27,North,32767,-999.0,0.0,77,0.00,,,0.00,Wunderground v.1.15,2013-04-28 06:54:00,
2013-04-28 02:58:00,43.6,37.2,30.27,North,32767,-999.0,0.0,78,0.00,,,0.00,Wunderground v.1.15,2013-04-28 06:58:00,
2013-04-28 03:00:00,43.4,37.0,30.27,North,32767,-999.0,0.0,78,0.00,,,0.00,Wunderground v.1.15,2013-04-28 07:00:00,
2013-04-28 03:02:00,43.2,36.8,30.27,North,32767,-999.0,0.0,78,0.00,,,0.00,Wunderground v.1.15,2013-04-28 07:02:00,
2013-04-28 03:04:00,43.1,36.7,30.27,North,32767,-999.0,0.0,78,0.00,,,0.00,Wunderground v.1.15,2013-04-28 07:04:00,
2013-04-28 03:06:00,43.1,36.7,30.27,North,32767,-999.0,0.0,78,0.00,,,0.00,Wunderground v.1.15,2013-04-28 07:06:00,
2013-04-28 03:08:00,43.1,37.0,30.27,North,32767,-999.0,0.0,79,0.00,,,0.00,Wunderground v.1.15,2013-04-28 07:08:00,
2013-04-28 03:12:00,43.0,37.6,30.27,North,32767,-999.0,0.0,81,0.00,,,0.00,Wunderground v.1.15,2013-04-28 07:12:00,
2013-04-28 03:14:00,43.0,37.6,30.27,North,32767,-999.0,0.0,81,0.00,,,0.00,Wunderground v.1.15,2013-04-28 07:14:00,
2013-04-28 03:18:00,43.2,37.8,30.27,North,32767,-999.0,0.0,81,0.00,,,0.00,Wunderground v.1.15,2013-04-28 07:18:00,
2013-04-28 03:20:00,43.2,37.8,30.27,North,32767,-999.0,0.0,81,0.00,,,0.00,Wunderground v.1.15,2013-04-28 07:20:00,
2013-04-28 03:22:00,43.1,38.0,30.27,North,32767,-999.0,0.0,82,0.00,,,0.00,Wunderground v.1.15,2013-04-28 07:22:00,
2013-04-28 03:26:00,42.9,37.8,30.27,North,32767,-999.0,0.0,82,0.00,,,0.00,Wunderground v.1.15,2013-04-28 07:26:00,
2013-04-28 03:28:00,43.1,38.0,30.27,North,32767,-999.0,0.0,82,0.00,,,0.00,Wunderground v.1.15,2013-04-28 07:28:00,
2013-04-28 03:34:00,42.4,36.7,30.27,North,32767,-999.0,0.0,80,0.00,,,0.00,Wunderground v.1.15,2013-04-28 07:34:00,
2013-04-28 03:36:00,42.0,36.6,30.28,North,32767,-999.0,0.0,81,0.00,,,0.00,Wunderground v.1.15,2013-04-28 07:36:00,
2013-04-28 03:38:00,41.9,37.1,30.28,North,32767,-999.0,0.0,83,0.00,,,0.00,Wunderground v.1.15,2013-04-28 07:38:00,
2013-04-28 03:42:00,41.5,36.7,30.28,North,32767,-999.0,0.0,83,0.00,,,0.00,Wunderground v.1.15,2013-04-28 07:42:00,
2013-04-28 03:44:00,41.5,37.0,30.28,North,32767,-999.0,0.0,84,0.00,,,0.00,Wunderground v.1.15,2013-04-28 07:44:00,
2013-04-28 03:48:00,41.7,37.2,30.28,North,32767,-999.0,0.0,84,0.00,,,0.00,Wunderground v.1.15,2013-04-28 07:48:00,
2013-04-28 03:50:00,41.7,37.2,30.28,North,32767,-999.0,0.0,84,0.00,,,0.00,Wunderground v.1.15,2013-04-28 07:50:00,
2013-04-28 03:54:00,42.0,37.5,30.28,North,32767,-999.0,0.0,84,0.00,,,0.00,Wunderground v.1.15,2013-04-28 07:54:00,
2013-04-28 03:56:00,42.2,37.4,30.28,North,32767,-999.0,0.0,83,0.00,,,0.00,Wunderground v.1.15,2013-04-28 07:56:00,
2013-04-28 03:58:00,42.4,37.3,30.28,North,32767,-999.0,0.0,82,0.00,,,0.00,Wunderground v.1.15,2013-04-28 07:58:00,
2013-04-28 04:02:00,42.8,37.1,30.28,North,32767,-999.0,0.0,80,0.00,,,0.00,Wunderground v.1.15,2013-04-28 08:02:00,
2013-04-28 04:04:00,43.0,36.9,30.28,North,32767,-999.0,0.0,79,0.00,,,0.00,Wunderground v.1.15,2013-04-28 08:04:00,
2013-04-28 04:06:00,43.0,36.9,30.28,North,32767,-999.0,0.0,79,0.00,,,0.00,Wunderground v.1.15,2013-04-28 08:06:00,
2013-04-28 04:08:00,43.1,37.0,30.28,North,32767,-999.0,0.0,79,0.00,,,0.00,Wunderground v.1.15,2013-04-28 08:08:00,
2013-04-28 04:12:00,43.0,36.6,30.28,North,32767,-999.0,0.0,78,0.00,,,0.00,Wunderground v.1.15,2013-04-28 08:12:00,
2013-04-28 04:14:00,43.2,36.5,30.28,North,32767,-999.0,0.0,77,0.00,,,0.00,Wunderground v.1.15,2013-04-28 08:14:00,
2013-04-28 04:16:00,43.4,36.7,30.28,North,32767,-999.0,0.0,77,0.00,,,0.00,Wunderground v.1.15,2013-04-28 08:16:00,
2013-04-28 04:18:00,43.5,36.8,30.28,North,32767,-999.0,0.0,77,0.00,,,0.00,Wunderground v.1.15,2013-04-28 08:18:00,
2013-04-28 04:22:00,43.4,36.7,30.28,North,32767,-999.0,0.0,77,0.00,,,0.00,Wunderground v.1.15,2013-04-28 08:22:00,
2013-04-28 04:24:00,43.3,36.6,30.28,North,32767,-999.0,0.0,77,0.00,,,0.00,Wunderground v.1.15,2013-04-28 08:24:00,
2013-04-28 04:26:00,43.3,36.6,30.28,North,32767,-999.0,0.0,77,0.00,,,0.00,Wunderground v.1.15,2013-04-28 08:26:00,
2013-04-28 04:28:00,43.2,36.5,30.28,North,32767,-999.0,0.0,77,0.00,,,0.00,Wunderground v.1.15,2013-04-28 08:28:00,
2013-04-28 04:30:00,42.6,35.9,30.28,North,32767,-999.0,0.0,77,0.00,,,0.00,Wunderground v.1.15,2013-04-28 08:30:00,
2013-04-28 04:34:00,41.6,35.9,30.28,North,32767,-999.0,0.0,80,0.00,,,0.00,Wunderground v.1.15,2013-04-28 08:34:00,
2013-04-28 04:36:00,41.4,36.0,30.28,North,32767,-999.0,0.0,81,0.00,,,0.00,Wunderground v.1.15,2013-04-28 08:36:00,
2013-04-28 04:40:00,41.4,36.0,30.28,North,32767,-999.0,0.0,81,0.00,,,0.00,Wunderground v.1.15,2013-04-28 08:40:00,
2013-04-28 04:42:00,41.3,36.2,30.28,North,32767,-999.0,0.0,82,0.00,,,0.00,Wunderground v.1.15,2013-04-28 08:42:00,
2013-04-28 04:46:00,41.1,36.0,30.28,North,32767,-999.0,0.0,82,0.00,,,0.00,Wunderground v.1.15,2013-04-28 08:46:00,
2013-04-28 04:48:00,41.1,36.0,30.27,North,32767,-999.0,0.0,82,0.00,,,0.00,Wunderground v.1.15,2013-04-28 08:48:00,
2013-04-28 04:54:00,41.0,36.2,30.27,North,32767,-999.0,0.0,83,0.00,,,0.00,Wunderground v.1.15,2013-04-28 08:54:00,
2013-04-28 04:56:00,40.7,35.9,30.27,North,32767,-999.0,0.0,83,0.00,,,0.00,Wunderground v.1.15,2013-04-28 08:56:00,
2013-04-28 04:58:00,40.5,35.7,30.27,North,32767,-999.0,0.0,83,0.00,,,0.00,Wunderground v.1.15,2013-04-28 08:58:00,
2013-04-28 05:00:00,40.5,36.0,30.27,North,32767,-999.0,0.0,84,0.00,,,0.00,Wunderground v.1.15,2013-04-28 09:00:00,
2013-04-28 05:02:00,40.6,36.1,30.27,North,32767,-999.0,0.0,84,0.00,,,0.00,Wunderground v.1.15,2013-04-28 09:02:00,
2013-04-28 05:08:00,40.9,36.1,30.27,North,32767,-999.0,0.0,83,0.00,,,0.00,Wunderground v.1.15,2013-04-28 09:08:00,
2013-04-28 05:10:00,40.9,36.4,30.27,North,32767,-999.0,0.0,84,0.00,,,0.00,Wunderground v.1.15,2013-04-28 09:10:00,
2013-04-28 05:12:00,41.0,36.5,30.27,North,32767,-999.0,0.0,84,0.00,,,0.00,Wunderground v.1.15,2013-04-28 09:12:00,
2013-04-28 05:14:00,40.9,36.1,30.27,North,32767,-999.0,0.0,83,0.00,,,0.00,Wunderground v.1.15,2013-04-28 09:14:00,
2013-04-28 05:16:00,40.6,35.8,30.27,North,32767,-999.0,0.0,83,0.00,,,0.00,Wunderground v.1.15,2013-04-28 09:16:00,
2013-04-28 05:18:00,40.5,36.0,30.28,North,32767,-999.0,0.0,84,0.00,,,0.00,Wunderground v.1.15,2013-04-28 09:18:00,
2013-04-28 05:20:00,40.5,36.3,30.27,North,32767,-999.0,0.0,85,0.00,,,0.00,Wunderground v.1.15,2013-04-28 09:20:00,
2013-04-28 05:22:00,40.2,35.8,30.28,North,32767,-999.0,0.0,84,0.00,,,0.00,Wunderground v.1.15,2013-04-28 09:22:00,
2013-04-28 05:26:00,39.8,35.7,30.28,North,32767,-999.0,0.0,85,0.00,,,0.00,Wunderground v.1.15,2013-04-28 09:26:00,
2013-04-28 05:28:00,39.6,35.5,30.28,North,32767,-999.0,0.0,85,0.00,,,0.00,Wunderground v.1.15,2013-04-28 09:28:00,
2013-04-28 05:30:00,39.7,35.9,30.28,North,32767,-999.0,0.0,86,0.00,,,0.00,Wunderground v.1.15,2013-04-28 09:30:00,
2013-04-28 05:34:00,39.9,36.1,30.28,North,32767,-999.0,0.0,86,0.00,,,0.00,Wunderground v.1.15,2013-04-28 09:34:00,
2013-04-28 05:36:00,40.0,35.9,30.28,North,32767,-999.0,0.0,85,0.00,,,0.00,Wunderground v.1.15,2013-04-28 09:36:00,
2013-04-28 05:38:00,39.9,35.8,30.28,North,32767,-999.0,0.0,85,0.00,,,0.00,Wunderground v.1.15,2013-04-28 09:38:00,
2013-04-28 05:40:00,39.7,35.6,30.28,North,32767,-999.0,0.0,85,0.00,,,0.00,Wunderground v.1.15,2013-04-28 09:40:00,
2013-04-28 05:46:00,39.1,35.3,30.28,North,32767,-999.0,0.0,86,0.00,,,0.00,Wunderground v.1.15,2013-04-28 09:46:00,
2013-04-28 05:52:00,39.5,36.0,30.28,North,32767,-999.0,0.0,87,0.00,,,0.00,Wunderground v.1.15,2013-04-28 09:52:00,
2013-04-28 05:54:00,39.5,36.0,30.28,North,32767,-999.0,0.0,87,0.00,,,0.00,Wunderground v.1.15,2013-04-28 09:54:00,
2013-04-28 06:00:00,39.1,35.3,30.28,North,32767,-999.0,0.0,86,0.00,,,0.00,Wunderground v.1.15,2013-04-28 10:00:00,
2013-04-28 06:02:00,38.9,35.1,30.28,North,32767,-999.0,0.0,86,0.00,,,0.00,Wunderground v.1.15,2013-04-28 10:02:00,
2013-04-28 06:06:00,38.9,35.4,30.28,North,32767,-999.0,0.0,87,0.00,,,0.00,Wunderground v.1.15,2013-04-28 10:06:00,
2013-04-28 06:08:00,39.0,35.5,30.28,North,32767,-999.0,0.0,87,0.00,,,0.00,Wunderground v.1.15,2013-04-28 10:08:00,
2013-04-28 06:10:00,39.1,35.6,30.28,North,32767,-999.0,0.0,87,0.00,,,0.00,Wunderground v.1.15,2013-04-28 10:10:00,
2013-04-28 06:14:00,39.0,35.5,30.28,North,32767,-999.0,0.0,87,0.00,,,0.00,Wunderground v.1.15,2013-04-28 10:14:00,
2013-04-28 06:16:00,39.0,35.5,30.28,North,32767,-999.0,0.0,87,0.00,,,0.00,Wunderground v.1.15,2013-04-28 10:16:00,
2013-04-28 06:20:00,39.3,35.8,30.28,North,32767,-999.0,0.0,87,0.00,,,0.00,Wunderground v.1.15,2013-04-28 10:20:00,
2013-04-28 06:22:00,39.5,36.0,30.28,North,32767,-999.0,0.0,87,0.00,,,0.00,Wunderground v.1.15,2013-04-28 10:22:00,
2013-04-28 06:26:00,39.6,36.0,30.28,North,32767,-999.0,0.0,87,0.00,,,0.00,Wunderground v.1.15,2013-04-28 10:26:00,
2013-04-28 06:30:00,39.6,36.0,30.28,North,32767,-999.0,0.0,87,0.00,,,0.00,Wunderground v.1.15,2013-04-28 10:30:00,
2013-04-28 06:32:00,39.7,36.4,30.28,North,32767,-999.0,0.0,88,0.00,,,0.00,Wunderground v.1.15,2013-04-28 10:32:00,
2013-04-28 06:34:00,39.8,36.5,30.28,North,32767,-999.0,0.0,88,0.00,,,0.00,Wunderground v.1.15,2013-04-28 10:34:00,
2013-04-28 06:36:00,40.0,36.7,30.28,North,32767,-999.0,0.0,88,0.00,,,0.00,Wunderground v.1.15,2013-04-28 10:36:00,
2013-04-28 06:42:00,40.5,37.5,30.28,North,32767,-999.0,0.0,89,0.00,,,0.00,Wunderground v.1.15,2013-04-28 10:42:00,
2013-04-28 06:44:00,40.5,37.5,30.29,North,32767,-999.0,0.0,89,0.00,,,0.00,Wunderground v.1.15,2013-04-28 10:44:00,
2013-04-28 06:48:00,40.5,37.2,30.29,North,32767,-999.0,0.0,88,0.00,,,0.00,Wunderground v.1.15,2013-04-28 10:48:00,
2013-04-28 06:50:00,40.5,37.2,30.29,North,32767,-999.0,0.0,88,0.00,,,0.00,Wunderground v.1.15,2013-04-28 10:50:00,
2013-04-28 06:54:00,40.6,37.3,30.29,North,32767,-999.0,0.0,88,0.00,,,0.00,Wunderground v.1.15,2013-04-28 10:54:00,
2013-04-28 06:56:00,40.6,37.3,30.29,North,32767,-999.0,0.0,88,0.00,,,0.00,Wunderground v.1.15,2013-04-28 10:56:00,
2013-04-28 06:58:00,40.8,37.5,30.29,North,32767,-999.0,0.0,88,0.00,,,0.00,Wunderground v.1.15,2013-04-28 10:58:00,
2013-04-28 07:00:00,40.9,37.3,30.29,North,32767,-999.0,0.0,87,0.00,,,0.00,Wunderground v.1.15,2013-04-28 11:00:00,
2013-04-28 07:02:00,41.0,37.4,30.29,North,32767,-999.0,0.0,87,0.00,,,0.00,Wunderground v.1.15,2013-04-28 11:02:00,
2013-04-28 07:04:00,41.0,37.4,30.29,North,32767,-999.0,0.0,87,0.00,,,0.00,Wunderground v.1.15,2013-04-28 11:04:00,
2013-04-28 07:06:00,41.1,37.5,30.29,North,32767,-999.0,0.0,87,0.00,,,0.00,Wunderground v.1.15,2013-04-28 11:06:00,
2013-04-28 07:08:00,41.3,37.7,30.29,North,32767,-999.0,0.0,87,0.00,,,0.00,Wunderground v.1.15,2013-04-28 11:08:00,
2013-04-28 07:10:00,41.4,37.8,30.30,North,32767,-999.0,0.0,87,0.00,,,0.00,Wunderground v.1.15,2013-04-28 11:10:00,
2013-04-28 07:12:00,41.7,38.1,30.30,North,32767,-999.0,0.0,87,0.00,,,0.00,Wunderground v.1.15,2013-04-28 11:12:00,
2013-04-28 07:14:00,42.0,38.1,30.30,North,32767,-999.0,0.0,86,0.00,,,0.00,Wunderground v.1.15,2013-04-28 11:14:00,
2013-04-28 07:16:00,42.2,38.3,30.30,North,32767,-999.0,0.0,86,0.00,,,0.00,Wunderground v.1.15,2013-04-28 11:16:00,
2013-04-28 07:18:00,42.5,38.3,30.30,North,32767,-999.0,0.0,85,0.00,,,0.00,Wunderground v.1.15,2013-04-28 11:18:00,
2013-04-28 07:22:00,43.0,38.8,30.30,North,32767,-999.0,0.0,85,0.00,,,0.00,Wunderground v.1.15,2013-04-28 11:22:00,
2013-04-28 07:24:00,43.2,39.0,30.30,North,32767,-999.0,0.0,85,0.00,,,0.00,Wunderground v.1.15,2013-04-28 11:24:00,
2013-04-28 07:26:00,43.4,38.9,30.31,North,32767,-999.0,0.0,84,0.00,,,0.00,Wunderground v.1.15,2013-04-28 11:26:00,
2013-04-28 07:28:00,43.7,39.2,30.31,North,32767,-999.0,0.0,84,0.00,,,0.00,Wunderground v.1.15,2013-04-28 11:28:00,
2013-04-28 07:30:00,43.9,39.4,30.31,North,32767,-999.0,0.0,84,0.00,,,0.00,Wunderground v.1.15,2013-04-28 11:30:00,
2013-04-28 07:32:00,44.1,39.6,30.31,North,32767,-999.0,0.0,84,0.00,,,0.00,Wunderground v.1.15,2013-04-28 11:32:00,
2013-04-28 07:36:00,44.4,39.6,30.31,North,32767,-999.0,0.0,83,0.00,,,0.00,Wunderground v.1.15,2013-04-28 11:36:00,
2013-04-28 07:38:00,44.6,39.4,30.31,North,32767,-999.0,0.0,82,0.00,,,0.00,Wunderground v.1.15,2013-04-28 11:38:00,
2013-04-28 07:42:00,45.0,39.8,30.31,North,32767,-999.0,0.0,82,0.00,,,0.00,Wunderground v.1.15,2013-04-28 11:42:00,
2013-04-28 07:44:00,45.1,39.6,30.31,North,32767,-999.0,0.0,81,0.00,,,0.00,Wunderground v.1.15,2013-04-28 11:44:00,
2013-04-28 07:46:00,45.5,39.7,30.31,North,32767,-999.0,0.0,80,0.00,,,0.00,Wunderground v.1.15,2013-04-28 11:46:00,
2013-04-28 07:52:00,46.2,40.0,30.31,North,32767,-999.0,0.0,79,0.00,,,0.00,Wunderground v.1.15,2013-04-28 11:52:00,
2013-04-28 07:56:00,46.8,40.6,30.31,North,32767,-999.0,0.0,79,0.00,,,0.00,Wunderground v.1.15,2013-04-28 11:56:00,
2013-04-28 07:58:00,47.2,40.7,30.32,North,32767,-999.0,0.0,78,0.00,,,0.00,Wunderground v.1.15,2013-04-28 11:58:00,
2013-04-28 08:00:00,47.5,40.6,30.32,North,32767,-999.0,0.0,77,0.00,,,0.00,Wunderground v.1.15,2013-04-28 12:00:00,
2013-04-28 08:04:00,48.1,40.9,30.32,North,32767,-999.0,0.0,76,0.00,,,0.00,Wunderground v.1.15,2013-04-28 12:04:00,
2013-04-28 08:06:00,48.3,41.1,30.32,North,32767,-999.0,0.0,76,0.00,,,0.00,Wunderground v.1.15,2013-04-28 12:06:00,
2013-04-28 08:08:00,48.6,41.0,30.32,North,32767,-999.0,0.0,75,0.00,,,0.00,Wunderground v.1.15,2013-04-28 12:08:00,
2013-04-28 08:10:00,48.8,41.6,30.32,North,32767,-999.0,0.0,76,0.00,,,0.00,Wunderground v.1.15,2013-04-28 12:10:00,
2013-04-28 08:16:00,49.3,42.4,30.32,North,32767,-999.0,0.0,77,0.00,,,0.00,Wunderground v.1.15,2013-04-28 12:16:00,
2013-04-28 08:18:00,49.5,41.9,30.32,North,32767,-999.0,0.0,75,0.00,,,0.00,Wunderground v.1.15,2013-04-28 12:18:00,
2013-04-28 08:20:00,49.6,42.0,30.32,North,32767,-999.0,0.0,75,0.00,,,0.00,Wunderground v.1.15,2013-04-28 12:20:00,
2013-04-28 08:24:00,50.0,42.4,30.32,North,32767,-999.0,0.0,75,0.00,,,0.00,Wunderground v.1.15,2013-04-28 12:24:00,
2013-04-28 08:26:00,50.2,42.6,30.32,North,32767,-999.0,0.0,75,0.00,,,0.00,Wunderground v.1.15,2013-04-28 12:26:00,
2013-04-28 08:28:00,50.4,43.1,30.32,North,32767,-999.0,0.0,76,0.00,,,0.00,Wunderground v.1.15,2013-04-28 12:28:00,
2013-04-28 08:32:00,50.7,43.1,30.32,North,32767,-999.0,0.0,75,0.00,,,0.00,Wunderground v.1.15,2013-04-28 12:32:00,
2013-04-28 08:34:00,50.9,42.9,30.32,North,32767,-999.0,0.0,74,0.00,,,0.00,Wunderground v.1.15,2013-04-28 12:34:00,
2013-04-28 08:36:00,51.0,42.3,30.32,North,32767,-999.0,0.0,72,0.00,,,0.00,Wunderground v.1.15,2013-04-28 12:36:00,
2013-04-28 08:40:00,51.7,42.2,30.32,North,32767,-999.0,0.0,70,0.00,,,0.00,Wunderground v.1.15,2013-04-28 12:40:00,
2013-04-28 08:44:00,52.2,42.7,30.32,North,32767,-999.0,0.0,70,0.00,,,0.00,Wunderground v.1.15,2013-04-28 12:44:00,
2013-04-28 08:46:00,52.5,43.0,30.32,North,32767,-999.0,0.0,70,0.00,,,0.00,Wunderground v.1.15,2013-04-28 12:46:00,
2013-04-28 08:48:00,52.7,42.8,30.32,North,32767,-999.0,0.0,69,0.00,,,0.00,Wunderground v.1.15,2013-04-28 12:48:00,
2013-04-28 08:50:00,52.8,42.1,30.32,North,32767,-999.0,0.0,67,0.00,,,0.00,Wunderground v.1.15,2013-04-28 12:50:00,
2013-04-28 08:52:00,53.2,43.3,30.32,North,32767,-999.0,0.0,69,0.00,,,0.00,Wunderground v.1.15,2013-04-28 12:52:00,
2013-04-28 08:54:00,53.4,43.1,30.32,North,32767,-999.0,0.0,68,0.00,,,0.00,Wunderground v.1.15,2013-04-28 12:54:00,
2013-04-28 08:58:00,54.1,40.5,30.32,North,32767,-999.0,0.0,60,0.00,,,0.00,Wunderground v.1.15,2013-04-28 12:58:00,
2013-04-28 09:00:00,54.3,40.3,30.32,North,32767,-999.0,0.0,59,0.00,,,0.00,Wunderground v.1.15,2013-04-28 13:00:00,
2013-04-28 09:02:00,54.5,41.3,30.32,North,32767,-999.0,0.0,61,0.00,,,0.00,Wunderground v.1.15,2013-04-28 13:02:00,
2013-04-28 09:06:00,55.0,40.5,30.32,North,32767,-999.0,0.0,58,0.00,,,0.00,Wunderground v.1.15,2013-04-28 13:06:00,
2013-04-28 09:08:00,55.1,41.0,30.32,North,32767,-999.0,0.0,59,0.00,,,0.00,Wunderground v.1.15,2013-04-28 13:08:00,
2013-04-28 09:12:00,55.4,41.7,30.31,North,32767,-999.0,0.0,60,0.00,,,0.00,Wunderground v.1.15,2013-04-28 13:12:00,
2013-04-28 09:14:00,55.6,41.9,30.32,North,32767,-999.0,0.0,60,0.00,,,0.00,Wunderground v.1.15,2013-04-28 13:14:00,
2013-04-28 09:16:00,55.5,41.4,30.31,North,32767,-999.0,0.0,59,0.00,,,0.00,Wunderground v.1.15,2013-04-28 13:16:00,
2013-04-28 09:18:00,55.7,42.0,30.31,North,32767,-999.0,0.0,60,0.00,,,0.00,Wunderground v.1.15,2013-04-28 13:18:00,
2013-04-28 09:22:00,56.0,43.2,30.31,North,32767,-999.0,0.0,62,0.00,,,0.00,Wunderground v.1.15,2013-04-28 13:22:00,
2013-04-28 09:24:00,56.2,44.2,30.31,North,32767,-999.0,0.0,64,0.00,,,0.00,Wunderground v.1.15,2013-04-28 13:24:00,
2013-04-28 09:26:00,56.1,43.3,30.31,North,32767,-999.0,0.0,62,0.00,,,0.00,Wunderground v.1.15,2013-04-28 13:26:00,
2013-04-28 09:30:00,56.4,43.5,30.31,North,32767,-999.0,0.0,62,0.00,,,0.00,Wunderground v.1.15,2013-04-28 13:30:00,
2013-04-28 09:32:00,56.7,45.1,30.31,North,32767,-999.0,0.0,65,0.00,,,0.00,Wunderground v.1.15,2013-04-28 13:32:00,
2013-04-28 09:34:00,57.0,43.7,30.31,North,32767,-999.0,0.0,61,0.00,,,0.00,Wunderground v.1.15,2013-04-28 13:34:00,
2013-04-28 09:36:00,57.1,44.2,30.31,North,32767,-999.0,0.0,62,0.00,,,0.00,Wunderground v.1.15,2013-04-28 13:36:00,
2013-04-28 09:38:00,57.3,45.2,30.31,North,32767,-999.0,0.0,64,0.00,,,0.00,Wunderground v.1.15,2013-04-28 13:38:00,
2013-04-28 09:40:00,57.6,45.1,30.31,North,32767,-999.0,0.0,63,0.00,,,0.00,Wunderground v.1.15,2013-04-28 13:40:00,
2013-04-28 09:42:00,57.7,42.6,30.31,North,32767,-999.0,0.0,57,0.00,,,0.00,Wunderground v.1.15,2013-04-28 13:42:00,
2013-04-28 09:44:00,57.7,42.6,30.31,North,32767,-999.0,0.0,57,0.00,,,0.00,Wunderground v.1.15,2013-04-28 13:44:00,
2013-04-28 09:48:00,58.4,44.6,30.31,North,32767,-999.0,0.0,60,0.00,,,0.00,Wunderground v.1.15,2013-04-28 13:48:00,
2013-04-28 09:50:00,58.5,43.3,30.31,North,32767,-999.0,0.0,57,0.00,,,0.00,Wunderground v.1.15,2013-04-28 13:50:00,
2013-04-28 09:52:00,58.7,44.0,30.31,North,32767,-999.0,0.0,58,0.00,,,0.00,Wunderground v.1.15,2013-04-28 13:52:00,
2013-04-28 09:56:00,58.5,42.4,30.31,North,32767,-999.0,0.0,55,0.00,,,0.00,Wunderground v.1.15,2013-04-28 13:56:00,
2013-04-28 09:58:00,59.0,43.3,30.30,North,32767,-999.0,0.0,56,0.00,,,0.00,Wunderground v.1.15,2013-04-28 13:58:00,
2013-04-28 10:02:00,59.2,43.5,30.30,North,32767,-999.0,0.0,56,0.00,,,0.00,Wunderground v.1.15,2013-04-28 14:02:00,
2013-04-28 10:06:00,60.0,44.7,30.30,North,32767,-999.0,0.0,57,0.00,,,0.00,Wunderground v.1.15,2013-04-28 14:06:00,
2013-04-28 10:08:00,60.5,44.7,30.30,North,32767,-999.0,0.0,56,0.00,,,0.00,Wunderground v.1.15,2013-04-28 14:08:00,
2013-04-28 10:12:00,60.2,43.0,30.30,North,32767,-999.0,0.0,53,0.00,,,0.00,Wunderground v.1.15,2013-04-28 14:12:00,
2013-04-28 10:16:00,60.5,44.2,30.30,North,32767,-999.0,0.0,55,0.00,,,0.00,Wunderground v.1.15,2013-04-28 14:16:00,
2013-04-28 10:18:00,60.7,43.9,30.30,North,32767,-999.0,0.0,54,0.00,,,0.00,Wunderground v.1.15,2013-04-28 14:18:00,
2013-04-28 10:20:00,60.7,43.5,30.30,North,32767,-999.0,0.0,53,0.00,,,0.00,Wunderground v.1.15,2013-04-28 14:20:00,
2013-04-28 10:22:00,60.5,42.3,30.30,North,32767,-999.0,0.0,51,0.00,,,0.00,Wunderground v.1.15,2013-04-28 14:22:00,
2013-04-28 10:24:00,60.7,45.4,30.30,North,32767,-999.0,0.0,57,0.00,,,0.00,Wunderground v.1.15,2013-04-28 14:24:00,
2013-04-28 10:26:00,60.9,44.6,30.30,North,32767,-999.0,0.0,55,0.00,,,0.00,Wunderground v.1.15,2013-04-28 14:26:00,
2013-04-28 10:28:00,61.2,43.4,30.30,North,32767,-999.0,0.0,52,0.00,,,0.00,Wunderground v.1.15,2013-04-28 14:28:00,
2013-04-28 10:34:00,61.6,43.8,30.30,North,32767,-999.0,0.0,52,0.00,,,0.00,Wunderground v.1.15,2013-04-28 14:34:00,
2013-04-28 10:36:00,61.8,43.0,30.30,North,32767,-999.0,0.0,50,0.00,,,0.00,Wunderground v.1.15,2013-04-28 14:36:00,
2013-04-28 10:38:00,61.6,42.8,30.30,North,32767,-999.0,0.0,50,0.00,,,0.00,Wunderground v.1.15,2013-04-28 14:38:00,
2013-04-28 10:42:00,61.8,43.0,30.30,North,32767,-999.0,0.0,50,0.00,,,0.00,Wunderground v.1.15,2013-04-28 14:42:00,
2013-04-28 10:44:00,61.8,43.5,30.30,North,32767,-999.0,0.0,51,0.00,,,0.00,Wunderground v.1.15,2013-04-28 14:44:00,
2013-04-28 10:48:00,62.4,43.5,30.30,North,32767,-999.0,0.0,50,0.00,,,0.00,Wunderground v.1.15,2013-04-28 14:48:00,
2013-04-28 10:50:00,62.6,44.2,30.30,North,32767,-999.0,0.0,51,0.00,,,0.00,Wunderground v.1.15,2013-04-28 14:50:00,
2013-04-28 10:54:00,63.3,44.3,30.29,North,32767,-999.0,0.0,50,0.00,,,0.00,Wunderground v.1.15,2013-04-28 14:54:00,
2013-04-28 10:56:00,63.6,43.0,30.30,North,32767,-999.0,0.0,47,0.00,,,0.00,Wunderground v.1.15,2013-04-28 14:56:00,
2013-04-28 10:58:00,63.4,43.9,30.30,North,32767,-999.0,0.0,49,0.00,,,0.00,Wunderground v.1.15,2013-04-28 14:58:00,
2013-04-28 11:02:00,63.1,43.6,30.30,North,32767,-999.0,0.0,49,0.00,,,0.00,Wunderground v.1.15,2013-04-28 15:02:00,
2013-04-28 11:04:00,63.0,43.5,30.29,North,32767,-999.0,0.0,49,0.00,,,0.00,Wunderground v.1.15,2013-04-28 15:04:00,
2013-04-28 11:08:00,63.9,43.8,30.29,North,32767,-999.0,0.0,48,0.00,,,0.00,Wunderground v.1.15,2013-04-28 15:08:00,
2013-04-28 11:10:00,64.0,42.8,30.29,North,32767,-999.0,0.0,46,0.00,,,0.00,Wunderground v.1.15,2013-04-28 15:10:00,
2013-04-28 11:12:00,64.2,43.0,30.29,North,32767,-999.0,0.0,46,0.00,,,0.00,Wunderground v.1.15,2013-04-28 15:12:00,
2013-04-28 11:14:00,64.5,46.0,30.29,North,32767,-999.0,0.0,51,0.00,,,0.00,Wunderground v.1.15,2013-04-28 15:14:00,
2013-04-28 11:18:00,64.9,44.7,30.29,North,32767,-999.0,0.0,48,0.00,,,0.00,Wunderground v.1.15,2013-04-28 15:18:00,
2013-04-28 11:20:00,65.0,43.1,30.29,North,32767,-999.0,0.0,45,0.00,,,0.00,Wunderground v.1.15,2013-04-28 15:20:00,
2013-04-28 11:26:00,65.2,43.3,30.29,North,32767,-999.0,0.0,45,0.00,,,0.00,Wunderground v.1.15,2013-04-28 15:26:00,
2013-04-28 11:30:00,65.4,46.8,30.29,North,32767,-999.0,0.0,51,0.00,,,0.00,Wunderground v.1.15,2013-04-28 15:30:00,
2013-04-28 11:36:00,65.7,45.5,30.29,North,32767,-999.0,0.0,48,0.00,,,0.00,Wunderground v.1.15,2013-04-28 15:36:00,
2013-04-28 11:38:00,65.9,43.9,30.29,North,32767,-999.0,0.0,45,0.00,,,0.00,Wunderground v.1.15,2013-04-28 15:38:00,
2013-04-28 11:42:00,67.2,47.9,30.29,North,32767,-999.0,0.0,50,0.00,,,0.00,Wunderground v.1.15,2013-04-28 15:42:00,
2013-04-28 11:44:00,67.0,43.8,30.29,North,32767,-999.0,0.0,43,0.00,,,0.00,Wunderground v.1.15,2013-04-28 15:44:00,
2013-04-28 11:48:00,66.1,42.9,30.29,North,32767,-999.0,0.0,43,0.00,,,0.00,Wunderground v.1.15,2013-04-28 15:48:00,
2013-04-28 11:50:00,65.7,43.2,30.29,North,32767,-999.0,0.0,44,0.00,,,0.00,Wunderground v.1.15,2013-04-28 15:50:00,
2013-04-28 11:52:00,65.7,43.8,30.29,North,32767,-999.0,0.0,45,0.00,,,0.00,Wunderground v.1.15,2013-04-28 15:52:00,
2013-04-28 11:54:00,65.9,45.1,30.29,North,32767,-999.0,0.0,47,0.00,,,0.00,Wunderground v.1.15,2013-04-28 15:54:00,
2013-04-28 11:58:00,66.7,42.2,30.29,North,32767,-999.0,0.0,41,0.00,,,0.00,Wunderground v.1.15,2013-04-28 15:58:00,
2013-04-28 12:00:00,66.6,46.3,30.28,SSW,192,3.0,3.0,48,0.00,,,0.00,Wunderground v.1.15,2013-04-28 16:00:00,
2013-04-28 12:02:00,67.1,45.6,30.28,SW,228,3.0,3.0,46,0.00,,,0.00,Wunderground v.1.15,2013-04-28 16:02:00,
2013-04-28 12:04:00,67.9,46.3,30.28,SSE,166,3.0,3.0,46,0.00,,,0.00,Wunderground v.1.15,2013-04-28 16:04:00,
2013-04-28 12:06:00,68.0,45.3,30.28,South,175,4.0,5.0,44,0.00,,,0.00,Wunderground v.1.15,2013-04-28 16:06:00,
2013-04-28 12:10:00,67.9,45.8,30.28,WSW,257,5.0,5.0,45,0.00,,,0.00,Wunderground v.1.15,2013-04-28 16:10:00,
2013-04-28 12:12:00,68.0,45.9,30.28,SSW,202,5.0,10.0,45,0.00,,,0.00,Wunderground v.1.15,2013-04-28 16:12:00,
2013-04-28 12:14:00,67.7,45.0,30.28,SSE,160,5.0,10.0,44,0.00,,,0.00,Wunderground v.1.15,2013-04-28 16:14:00,
2013-04-28 12:16:00,67.5,44.8,30.27,South,174,5.0,10.0,44,0.00,,,0.00,Wunderground v.1.15,2013-04-28 16:16:00,
2013-04-28 12:18:00,67.3,45.8,30.27,SSW,192,4.0,10.0,46,0.00,,,0.00,Wunderground v.1.15,2013-04-28 16:18:00,
2013-04-28 12:20:00,67.5,44.8,30.27,WSW,250,4.0,4.0,44,0.00,,,0.00,Wunderground v.1.15,2013-04-28 16:20:00,
2013-04-28 12:26:00,67.3,45.2,30.27,SW,223,3.0,4.0,45,0.00,,,0.00,Wunderground v.1.15,2013-04-28 16:26:00,
2013-04-28 12:30:00,67.4,44.7,30.27,SSW,197,3.0,3.0,44,0.00,,,0.00,Wunderground v.1.15,2013-04-28 16:30:00,
2013-04-28 12:32:00,67.2,45.1,30.27,South,187,2.0,3.0,45,0.00,,,0.00,Wunderground v.1.15,2013-04-28 16:32:00,
2013-04-28 12:34:00,67.4,45.3,30.26,SW,219,1.0,3.0,45,0.00,,,0.00,Wunderground v.1.15,2013-04-28 16:34:00,
2013-04-28 12:38:00,67.9,44.0,30.26,SSW,210,1.0,3.0,42,0.00,,,0.00,Wunderground v.1.15,2013-04-28 16:38:00,
2013-04-28 12:40:00,67.6,46.1,30.26,SSW,195,1.0,1.0,46,0.00,,,0.00,Wunderground v.1.15,2013-04-28 16:40:00,
2013-04-28 12:42:00,67.5,44.2,30.26,SW,218,1.0,2.0,43,0.00,,,0.00,Wunderground v.1.15,2013-04-28 16:42:00,
2013-04-28 12:44:00,67.7,45.0,30.26,ESE,121,1.0,2.0,44,0.00,,,0.00,Wunderground v.1.15,2013-04-28 16:44:00,
2013-04-28 12:46:00,67.9,45.2,30.26,SE,137,2.0,2.0,44,0.00,,,0.00,Wunderground v.1.15,2013-04-28 16:46:00,
2013-04-28 12:48:00,67.9,45.2,30.26,South,171,2.0,3.0,44,0.00,,,0.00,Wunderground v.1.15,2013-04-28 16:48:00,
2013-04-28 12:52:00,68.5,45.1,30.26,SSE,163,2.0,3.0,43,0.00,,,0.00,Wunderground v.1.15,2013-04-28 16:52:00,
2013-04-28 12:54:00,68.7,47.1,30.26,SSE,162,2.0,7.0,46,0.00,,,0.00,Wunderground v.1.15,2013-04-28 16:54:00,
2013-04-28 12:56:00,68.7,45.9,30.26,SSE,165,2.0,7.0,44,0.00,,,0.00,Wunderground v.1.15,2013-04-28 16:56:00,
2013-04-28 13:00:00,67.9,44.0,30.26,SSE,165,3.0,3.0,42,0.00,,,0.00,Wunderground v.1.15,2013-04-28 17:00:00,
2013-04-28 13:02:00,67.9,45.2,30.25,ESE,105,3.0,3.0,44,0.00,,,0.00,Wunderground v.1.15,2013-04-28 17:02:00,
2013-04-28 13:04:00,67.9,43.3,30.26,South,176,2.0,3.0,41,0.00,,,0.00,Wunderground v.1.15,2013-04-28 17:04:00,
2013-04-28 13:06:00,67.9,45.2,30.25,SSW,196,2.0,3.0,44,0.00,,,0.00,Wunderground v.1.15,2013-04-28 17:06:00,
2013-04-28 13:10:00,69.2,45.1,30.25,SSW,192,2.0,2.0,42,0.00,,,0.00,Wunderground v.1.15,2013-04-28 17:10:00,
2013-04-28 13:12:00,69.4,45.3,30.25,South,191,3.0,3.0,42,0.00,,,0.00,Wunderground v.1.15,2013-04-28 17:12:00,
2013-04-28 13:18:00,69.6,46.7,30.25,South,184,4.0,4.0,44,0.00,,,0.00,Wunderground v.1.15,2013-04-28 17:18:00,
2013-04-28 13:20:00,69.5,46.0,30.25,ESE,121,4.0,4.0,43,0.00,,,0.00,Wunderground v.1.15,2013-04-28 17:20:00,
2013-04-28 13:22:00,69.7,45.6,30.25,SSW,193,4.0,4.0,42,0.00,,,0.00,Wunderground v.1.15,2013-04-28 17:22:00,
2013-04-28 13:24:00,69.9,45.1,30.25,SSE,156,4.0,5.0,41,0.00,,,0.00,Wunderground v.1.15,2013-04-28 17:24:00,
2013-04-28 13:26:00,69.8,45.7,30.25,SSE,150,3.0,5.0,42,0.00,,,0.00,Wunderground v.1.15,2013-04-28 17:26:00,
2013-04-28 13:30:00,69.7,48.0,30.25,SE,132,4.0,6.0,46,0.00,,,0.00,Wunderground v.1.15,2013-04-28 17:30:00,
2013-04-28 13:32:00,69.4,45.3,30.24,SE,128,4.0,6.0,42,0.00,,,0.00,Wunderground v.1.15,2013-04-28 17:32:00,
2013-04-28 13:34:00,69.4,45.3,30.25,SE,128,4.0,8.0,42,0.00,,,0.00,Wunderground v.1.15,2013-04-28 17:34:00,
2013-04-28 13:38:00,69.0,43.7,30.24,SW,222,3.0,8.0,40,0.00,,,0.00,Wunderground v.1.15,2013-04-28 17:38:00,
2013-04-28 13:40:00,69.0,44.3,30.24,East,93,3.0,3.0,41,0.00,,,0.00,Wunderground v.1.15,2013-04-28 17:40:00,
2013-04-28 13:44:00,68.8,46.0,30.24,SSE,159,2.0,3.0,44,0.00,,,0.00,Wunderground v.1.15,2013-04-28 17:44:00,
2013-04-28 13:46:00,68.7,44.7,30.24,SSE,159,1.0,3.0,42,0.00,,,0.00,Wunderground v.1.15,2013-04-28 17:46:00,
2013-04-28 13:48:00,68.6,43.3,30.24,South,175,1.0,4.0,40,0.00,,,0.00,Wunderground v.1.15,2013-04-28 17:48:00,
2013-04-28 13:52:00,68.2,44.8,30.24,South,175,1.0,5.0,43,0.00,,,0.00,Wunderground v.1.15,2013-04-28 17:52:00,
2013-04-28 13:54:00,68.1,44.7,30.24,South,188,1.0,5.0,43,0.00,,,0.00,Wunderground v.1.15,2013-04-28 17:54:00,
2013-04-28 13:56:00,68.1,45.9,30.24,South,169,2.0,5.0,45,0.00,,,0.00,Wunderground v.1.15,2013-04-28 17:56:00,
2013-04-28 13:58:00,68.0,45.3,30.24,SSE,159,1.0,5.0,44,0.00,,,0.00,Wunderground v.1.15,2013-04-28 17:58:00,
2013-04-28 14:00:00,68.1,45.4,30.24,ESE,119,1.0,4.0,44,0.00,,,0.00,Wunderground v.1.15,2013-04-28 18:00:00,
2013-04-28 14:02:00,68.3,43.7,30.23,SSE,151,2.0,4.0,41,0.00,,,0.00,Wunderground v.1.15,2013-04-28 18:02:00,
2013-04-28 14:06:00,68.6,43.9,30.24,SSE,150,4.0,7.0,41,0.00,,,0.00,Wunderground v.1.15,2013-04-28 18:06:00,
2013-04-28 14:08:00,68.5,43.2,30.23,SE,141,4.0,7.0,40,0.00,,,0.00,Wunderground v.1.15,2013-04-28 18:08:00,
2013-04-28 14:12:00,68.3,44.9,30.23,SE,142,5.0,6.0,43,0.00,,,0.00,Wunderground v.1.15,2013-04-28 18:12:00,
2013-04-28 14:14:00,68.8,47.2,30.23,ESE,105,4.0,6.0,46,0.00,,,0.00,Wunderground v.1.15,2013-04-28 18:14:00,
2013-04-28 14:18:00,69.3,45.8,30.23,SSE,153,3.0,6.0,43,0.00,,,0.00,Wunderground v.1.15,2013-04-28 18:18:00,
2013-04-28 14:20:00,69.0,44.3,30.23,East,93,3.0,4.0,41,0.00,,,0.00,Wunderground v.1.15,2013-04-28 18:20:00,
2013-04-28 14:22:00,68.6,43.9,30.23,South,171,3.0,4.0,41,0.00,,,0.00,Wunderground v.1.15,2013-04-28 18:22:00,
2013-04-28 14:28:00,68.9,45.5,30.23,SE,139,3.0,4.0,43,0.00,,,0.00,Wunderground v.1.15,2013-04-28 18:28:00,
2013-04-28 14:32:00,68.7,45.3,30.23,SSE,165,2.0,3.0,43,0.00,,,0.00,Wunderground v.1.15,2013-04-28 18:32:00,
2013-04-28 14:36:00,68.1,45.9,30.23,SSE,161,2.0,5.0,45,0.00,,,0.00,Wunderground v.1.15,2013-04-28 18:36:00,
2013-04-28 14:38:00,68.1,45.9,30.23,SSW,213,1.0,5.0,45,0.00,,,0.00,Wunderground v.1.15,2013-04-28 18:38:00,
2013-04-28 14:44:00,68.5,45.1,30.23,SE,140,3.0,9.0,43,0.00,,,0.00,Wunderground v.1.15,2013-04-28 18:44:00,
2013-04-28 14:46:00,68.1,42.9,30.23,SE,136,4.0,9.0,40,0.00,,,0.00,Wunderground v.1.15,2013-04-28 18:46:00,
2013-04-28 14:50:00,68.3,44.9,30.23,South,179,4.0,4.0,43,0.00,,,0.00,Wunderground v.1.15,2013-04-28 18:50:00,
2013-04-28 14:52:00,68.7,45.9,30.23,SSW,207,4.0,11.0,44,0.00,,,0.00,Wunderground v.1.15,2013-04-28 18:52:00,
2013-04-28 14:54:00,68.9,45.5,30.23,SSW,207,3.0,11.0,43,0.00,,,0.00,Wunderground v.1.15,2013-04-28 18:54:00,
2013-04-28 14:58:00,69.0,44.9,30.22,SE,140,3.0,11.0,42,0.00,,,0.00,Wunderground v.1.15,2013-04-28 18:58:00,
2013-04-28 15:00:00,68.6,45.8,30.22,South,171,3.0,5.0,44,0.00,,,0.00,Wunderground v.1.15,2013-04-28 19:00:00,
2013-04-28 15:06:00,68.4,46.2,30.22,South,178,3.0,5.0,45,0.00,,,0.00,Wunderground v.1.15,2013-04-28 19:06:00,
2013-04-28 15:08:00,68.5,47.5,30.22,SE,134,3.0,5.0,47,0.00,,,0.00,Wunderground v.1.15,2013-04-28 19:08:00,
2013-04-28 15:10:00,68.5,45.1,30.22,East,83,3.0,5.0,43,0.00,,,0.00,Wunderground v.1.15,2013-04-28 19:10:00,
2013-04-28 15:14:00,68.4,46.8,30.22,SSW,192,3.0,5.0,46,0.00,,,0.00,Wunderground v.1.15,2013-04-28 19:14:00,
2013-04-28 15:16:00,68.2,46.0,30.22,South,178,3.0,5.0,45,0.00,,,0.00,Wunderground v.1.15,2013-04-28 19:16:00,
2013-04-28 15:20:00,68.3,46.7,30.22,SSE,159,3.0,5.0,46,0.00,,,0.00,Wunderground v.1.15,2013-04-28 19:20:00,
2013-04-28 15:22:00,68.2,45.4,30.22,SSW,197,4.0,5.0,44,0.00,,,0.00,Wunderground v.1.15,2013-04-28 19:22:00,
2013-04-28 15:24:00,68.1,43.5,30.22,South,184,4.0,5.0,41,0.00,,,0.00,Wunderground v.1.15,2013-04-28 19:24:00,
2013-04-28 15:28:00,68.0,44.7,30.22,South,189,5.0,8.0,43,0.00,,,0.00,Wunderground v.1.15,2013-04-28 19:28:00,
2013-04-28 15:34:00,67.7,45.0,30.22,SSW,210,4.0,5.0,44,0.00,,,0.00,Wunderground v.1.15,2013-04-28 19:34:00,
2013-04-28 15:36:00,67.8,44.5,30.22,SSW,192,5.0,7.0,43,0.00,,,0.00,Wunderground v.1.15,2013-04-28 19:36:00,
2013-04-28 15:40:00,67.7,45.0,30.21,SE,140,4.0,4.0,44,0.00,,,0.00,Wunderground v.1.15,2013-04-28 19:40:00,
2013-04-28 15:42:00,67.5,44.2,30.21,SSE,168,3.0,4.0,43,0.00,,,0.00,Wunderground v.1.15,2013-04-28 19:42:00,
2013-04-28 15:46:00,67.5,44.8,30.21,South,174,3.0,4.0,44,0.00,,,0.00,Wunderground v.1.15,2013-04-28 19:46:00,
2013-04-28 15:48:00,67.6,44.3,30.21,SSE,161,3.0,10.0,43,0.00,,,0.00,Wunderground v.1.15,2013-04-28 19:48:00,
2013-04-28 15:50:00,67.6,44.9,30.21,SE,134,3.0,3.0,44,0.00,,,0.00,Wunderground v.1.15,2013-04-28 19:50:00,
2013-04-28 15:54:00,67.5,45.4,30.21,SSE,153,3.0,6.0,45,0.00,,,0.00,Wunderground v.1.15,2013-04-28 19:54:00,
2013-04-28 15:56:00,67.5,43.0,30.21,South,173,3.0,6.0,41,0.00,,,0.00,Wunderground v.1.15,2013-04-28 19:56:00,
2013-04-28 16:02:00,67.3,44.6,30.21,SSE,155,5.0,5.0,44,0.00,,,0.00,Wunderground v.1.15,2013-04-28 20:02:00,
2013-04-28 16:04:00,67.2,45.7,30.21,SSW,199,5.0,5.0,46,0.00,,,0.00,Wunderground v.1.15,2013-04-28 20:04:00,
2013-04-28 16:08:00,67.0,43.8,30.21,SE,131,5.0,11.0,43,0.00,,,0.00,Wunderground v.1.15,2013-04-28 20:08:00,
2013-04-28 16:10:00,66.8,43.0,30.21,SSE,162,5.0,5.0,42,0.00,,,0.00,Wunderground v.1.15,2013-04-28 20:10:00,
2013-04-28 16:12:00,66.7,44.1,30.21,South,188,5.0,5.0,44,0.00,,,0.00,Wunderground v.1.15,2013-04-28 20:12:00,
2013-04-28 16:14:00,66.7,43.5,30.20,SSE,157,5.0,5.0,43,0.00,,,0.00,Wunderground v.1.15,2013-04-28 20:14:00,
2013-04-28 16:18:00,66.8,43.6,30.21,SW,215,4.0,5.0,43,0.00,,,0.00,Wunderground v.1.15,2013-04-28 20:18:00,
2013-04-28 16:20:00,66.8,43.0,30.21,SE,134,3.0,3.0,42,0.00,,,0.00,Wunderground v.1.15,2013-04-28 20:20:00,
2013-04-28 16:26:00,66.8,44.2,30.20,SSW,210,3.0,11.0,44,0.00,,,0.00,Wunderground v.1.15,2013-04-28 20:26:00,
2013-04-28 16:28:00,66.8,43.0,30.20,SSE,157,4.0,11.0,42,0.00,,,0.00,Wunderground v.1.15,2013-04-28 20:28:00,
2013-04-28 16:32:00,66.6,42.2,30.20,SSE,156,5.0,5.0,41,0.00,,,0.00,Wunderground v.1.15,2013-04-28 20:32:00,
2013-04-28 16:34:00,66.6,44.6,30.20,SSE,164,4.0,5.0,45,0.00,,,0.00,Wunderground v.1.15,2013-04-28 20:34:00,
2013-04-28 16:36:00,66.5,43.9,30.20,SSE,157,5.0,5.0,44,0.00,,,0.00,Wunderground v.1.15,2013-04-28 20:36:00,
2013-04-28 16:38:00,66.5,43.3,30.20,SSE,167,4.0,5.0,43,0.00,,,0.00,Wunderground v.1.15,2013-04-28 20:38:00,
2013-04-28 16:40:00,66.4,43.8,30.20,ESE,123,4.0,4.0,44,0.00,,,0.00,Wunderground v.1.15,2013-04-28 20:40:00,
2013-04-28 16:44:00,66.3,43.1,30.20,SSE,158,4.0,6.0,43,0.00,,,0.00,Wunderground v.1.15,2013-04-28 20:44:00,
2013-04-28 16:46:00,66.2,43.0,30.20,SSE,156,4.0,6.0,43,0.00,,,0.00,Wunderground v.1.15,2013-04-28 20:46:00,
2013-04-28 16:48:00,66.2,43.6,30.20,SSE,152,3.0,6.0,44,0.00,,,0.00,Wunderground v.1.15,2013-04-28 20:48:00,
2013-04-28 16:52:00,66.2,42.4,30.20,South,171,3.0,7.0,42,0.00,,,0.00,Wunderground v.1.15,2013-04-28 20:52:00,
2013-04-28 16:56:00,66.2,43.6,30.20,SE,138,2.0,7.0,44,0.00,,,0.00,Wunderground v.1.15,2013-04-28 20:56:00,
2013-04-28 16:58:00,66.2,43.6,30.20,SSE,155,2.0,7.0,44,0.00,,,0.00,Wunderground v.1.15,2013-04-28 20:58:00,
2013-04-28 17:00:00,66.1,42.3,30.20,SSE,159,2.0,2.0,42,0.00,,,0.00,Wunderground v.1.15,2013-04-28 21:00:00,
2013-04-28 17:02:00,66.0,44.0,30.20,SSE,167,2.0,2.0,45,0.00,,,0.00,Wunderground v.1.15,2013-04-28 21:02:00,
2013-04-28 17:04:00,66.1,43.5,30.20,SSE,147,2.0,3.0,44,0.00,,,0.00,Wunderground v.1.15,2013-04-28 21:04:00,
2013-04-28 17:08:00,66.0,43.5,30.20,SE,141,2.0,3.0,44,0.00,,,0.00,Wunderground v.1.15,2013-04-28 21:08:00,
2013-04-28 17:10:00,66.0,43.5,30.20,SSE,163,1.0,1.0,44,0.00,,,0.00,Wunderground v.1.15,2013-04-28 21:10:00,
2013-04-28 17:16:00,65.9,45.6,30.20,SSE,150,1.0,1.0,48,0.00,,,0.00,Wunderground v.1.15,2013-04-28 21:16:00,
2013-04-28 17:18:00,65.8,43.3,30.20,South,186,1.0,1.0,44,0.00,,,0.00,Wunderground v.1.15,2013-04-28 21:18:00,
2013-04-28 17:20:00,65.8,43.3,30.19,South,183,1.0,1.0,44,0.00,,,0.00,Wunderground v.1.15,2013-04-28 21:20:00,
2013-04-28 17:24:00,65.9,44.5,30.19,SSE,166,0.0,1.0,46,0.00,,,0.00,Wunderground v.1.15,2013-04-28 21:24:00,
2013-04-28 17:26:00,65.8,44.4,30.19,SSE,166,1.0,4.0,46,0.00,,,0.00,Wunderground v.1.15,2013-04-28 21:26:00,
2013-04-28 17:28:00,65.7,44.3,30.19,SSE,153,1.0,4.0,46,0.00,,,0.00,Wunderground v.1.15,2013-04-28 21:28:00,
2013-04-28 17:30:00,65.6,44.8,30.19,South,184,2.0,2.0,47,0.00,,,0.00,Wunderground v.1.15,2013-04-28 21:30:00,
2013-04-28 17:34:00,65.5,43.6,30.19,South,182,2.0,2.0,45,0.00,,,0.00,Wunderground v.1.15,2013-04-28 21:34:00,
2013-04-28 17:36:00,65.4,44.6,30.19,SSW,203,3.0,3.0,47,0.00,,,0.00,Wunderground v.1.15,2013-04-28 21:36:00,
2013-04-28 17:40:00,65.2,43.3,30.18,SSE,159,2.0,5.0,45,0.00,,,0.00,Wunderground v.1.15,2013-04-28 21:40:00,
2013-04-28 17:42:00,65.1,43.8,30.19,South,172,3.0,5.0,46,0.00,,,0.00,Wunderground v.1.15,2013-04-28 21:42:00,
2013-04-28 17:46:00,65.0,42.5,30.18,SSE,156,3.0,10.0,44,0.00,,,0.00,Wunderground v.1.15,2013-04-28 21:46:00,
2013-04-28 17:48:00,65.0,43.1,30.18,South,171,4.0,10.0,45,0.00,,,0.00,Wunderground v.1.15,2013-04-28 21:48:00,
2013-04-28 17:50:00,64.9,43.0,30.18,SSW,199,4.0,5.0,45,0.00,,,0.00,Wunderground v.1.15,2013-04-28 21:50:00,
2013-04-28 17:52:00,64.9,43.6,30.18,South,172,3.0,5.0,46,0.00,,,0.00,Wunderground v.1.15,2013-04-28 21:52:00,
2013-04-28 17:54:00,64.9,43.0,30.18,South,187,3.0,7.0,45,0.00,,,0.00,Wunderground v.1.15,2013-04-28 21:54:00,
2013-04-28 17:56:00,64.8,44.1,30.18,South,173,3.0,7.0,47,0.00,,,0.00,Wunderground v.1.15,2013-04-28 21:56:00,
2013-04-28 18:00:00,64.7,43.4,30.18,SSW,212,3.0,3.0,46,0.00,,,0.00,Wunderground v.1.15,2013-04-28 22:00:00,
2013-04-28 18:02:00,64.5,44.9,30.18,SSW,194,3.0,3.0,49,0.00,,,0.00,Wunderground v.1.15,2013-04-28 22:02:00,
2013-04-28 18:04:00,64.4,43.7,30.18,SSE,155,2.0,8.0,47,0.00,,,0.00,Wunderground v.1.15,2013-04-28 22:04:00,
2013-04-28 18:06:00,64.4,43.7,30.18,South,180,3.0,8.0,47,0.00,,,0.00,Wunderground v.1.15,2013-04-28 22:06:00,
2013-04-28 18:08:00,64.2,45.7,30.18,South,169,2.0,8.0,51,0.00,,,0.00,Wunderground v.1.15,2013-04-28 22:08:00,
2013-04-28 18:10:00,64.2,43.0,30.18,SSW,196,2.0,4.0,46,0.00,,,0.00,Wunderground v.1.15,2013-04-28 22:10:00,
2013-04-28 18:14:00,64.1,42.9,30.18,South,171,3.0,5.0,46,0.00,,,0.00,Wunderground v.1.15,2013-04-28 22:14:00,
2013-04-28 18:16:00,64.1,42.9,30.18,South,171,3.0,5.0,46,0.00,,,0.00,Wunderground v.1.15,2013-04-28 22:16:00,
2013-04-28 18:22:00,63.9,42.7,30.18,South,175,2.0,3.0,46,0.00,,,0.00,Wunderground v.1.15,2013-04-28 22:22:00,
2013-04-28 18:26:00,63.8,43.2,30.18,SSW,198,2.0,3.0,47,0.00,,,0.00,Wunderground v.1.15,2013-04-28 22:26:00,
2013-04-28 18:28:00,63.7,43.1,30.18,South,191,1.0,3.0,47,0.00,,,0.00,Wunderground v.1.15,2013-04-28 22:28:00,
2013-04-28 18:32:00,63.6,43.0,30.17,South,178,1.0,2.0,47,0.00,,,0.00,Wunderground v.1.15,2013-04-28 22:32:00,
2013-04-28 18:36:00,63.4,41.7,30.17,South,185,1.0,3.0,45,0.00,,,0.00,Wunderground v.1.15,2013-04-28 22:36:00,
2013-04-28 18:38:00,63.4,42.8,30.17,South,188,1.0,3.0,47,0.00,,,0.00,Wunderground v.1.15,2013-04-28 22:38:00,
2013-04-28 18:42:00,63.2,42.6,30.17,SSW,200,0.0,9.0,47,0.00,,,0.00,Wunderground v.1.15,2013-04-28 22:42:00,
2013-04-28 18:46:00,63.1,42.0,30.17,SSW,193,1.0,9.0,46,0.00,,,0.00,Wunderground v.1.15,2013-04-28 22:46:00,
2013-04-28 18:48:00,63.1,42.0,30.17,SSW,200,1.0,9.0,46,0.00,,,0.00,Wunderground v.1.15,2013-04-28 22:48:00,
2013-04-28 18:50:00,63.0,42.4,30.17,South,181,2.0,2.0,47,0.00,,,0.00,Wunderground v.1.15,2013-04-28 22:50:00,
2013-04-28 18:52:00,62.9,42.4,30.17,South,181,2.0,2.0,47,0.00,,,0.00,Wunderground v.1.15,2013-04-28 22:52:00,
2013-04-28 18:54:00,62.7,42.2,30.17,SSW,199,1.0,2.0,47,0.00,,,0.00,Wunderground v.1.15,2013-04-28 22:54:00,
2013-04-28 18:58:00,62.5,41.4,30.18,SSW,205,2.0,6.0,46,0.00,,,0.00,Wunderground v.1.15,2013-04-28 22:58:00,
2013-04-28 19:00:00,62.5,40.9,30.18,South,180,3.0,8.0,45,0.00,,,0.00,Wunderground v.1.15,2013-04-28 23:00:00,
2013-04-28 19:02:00,62.5,40.3,30.18,SSW,205,4.0,8.0,44,0.00,,,0.00,Wunderground v.1.15,2013-04-28 23:02:00,
2013-04-28 19:04:00,62.5,40.9,30.18,SSW,205,4.0,8.0,45,0.00,,,0.00,Wunderground v.1.15,2013-04-28 23:04:00,
2013-04-28 19:06:00,62.4,40.2,30.18,South,191,4.0,8.0,44,0.00,,,0.00,Wunderground v.1.15,2013-04-28 23:06:00,
2013-04-28 19:10:00,62.3,40.7,30.19,South,189,3.0,4.0,45,0.00,,,0.00,Wunderground v.1.15,2013-04-28 23:10:00,
2013-04-28 19:12:00,62.2,39.4,30.19,SSW,201,4.0,6.0,43,0.00,,,0.00,Wunderground v.1.15,2013-04-28 23:12:00,
2013-04-28 19:14:00,62.1,39.9,30.18,South,178,4.0,6.0,44,0.00,,,0.00,Wunderground v.1.15,2013-04-28 23:14:00,
2013-04-28 19:16:00,62.1,39.9,30.18,South,172,4.0,6.0,44,0.00,,,0.00,Wunderground v.1.15,2013-04-28 23:16:00,
2013-04-28 19:18:00,61.9,39.7,30.18,South,180,4.0,6.0,44,0.00,,,0.00,Wunderground v.1.15,2013-04-28 23:18:00,
2013-04-28 19:20:00,61.9,39.1,30.18,South,172,4.0,4.0,43,0.00,,,0.00,Wunderground v.1.15,2013-04-28 23:20:00,
2013-04-28 19:24:00,61.7,39.0,30.18,SSW,198,3.0,4.0,43,0.00,,,0.00,Wunderground v.1.15,2013-04-28 23:24:00,
2013-04-28 19:28:00,61.7,39.0,30.18,SSW,196,3.0,5.0,43,0.00,,,0.00,Wunderground v.1.15,2013-04-28 23:28:00,
2013-04-28 19:30:00,61.6,39.5,30.18,SSW,192,3.0,4.0,44,0.00,,,0.00,Wunderground v.1.15,2013-04-28 23:30:00,
2013-04-28 19:32:00,61.6,38.9,30.18,SW,214,3.0,6.0,43,0.00,,,0.00,Wunderground v.1.15,2013-04-28 23:32:00,
2013-04-28 19:34:00,61.6,38.9,30.18,South,185,3.0,6.0,43,0.00,,,0.00,Wunderground v.1.15,2013-04-28 23:34:00,
2013-04-28 19:38:00,61.4,38.7,30.18,South,171,3.0,6.0,43,0.00,,,0.00,Wunderground v.1.15,2013-04-28 23:38:00,
2013-04-28 19:40:00,61.4,38.7,30.18,South,178,2.0,2.0,43,0.00,,,0.00,Wunderground v.1.15,2013-04-28 23:40:00,
2013-04-28 19:44:00,61.3,38.6,30.18,SSW,193,2.0,2.0,43,0.00,,,0.00,Wunderground v.1.15,2013-04-28 23:44:00,
2013-04-28 19:46:00,61.2,39.1,30.18,South,176,1.0,2.0,44,0.00,,,0.00,Wunderground v.1.15,2013-04-28 23:46:00,
2013-04-28 19:48:00,61.0,38.9,30.18,SSE,168,1.0,2.0,44,0.00,,,0.00,Wunderground v.1.15,2013-04-28 23:48:00,
2013-04-28 19:52:00,60.8,38.7,30.18,South,187,1.0,1.0,44,0.00,,,0.00,Wunderground v.1.15,2013-04-28 23:52:00,
2013-04-28 19:58:00,60.7,38.1,30.18,South,179,1.0,1.0,43,0.00,,,0.00,Wunderground v.1.15,2013-04-28 23:58:00,
2013-04-28 20:00:00,60.7,38.1,30.18,South,179,1.0,1.0,43,0.00,,,0.00,Wunderground v.1.15,2013-04-29 00:00:00,
2013-04-28 20:02:00,60.6,38.6,30.18,South,171,0.0,1.0,44,0.00,,,0.00,Wunderground v.1.15,2013-04-29 00:02:00,
2013-04-28 20:08:00,60.2,38.8,30.18,South,177,1.0,3.0,45,0.00,,,0.00,Wunderground v.1.15,2013-04-29 00:08:00,
2013-04-28 20:10:00,60.1,38.7,30.18,South,173,1.0,1.0,45,0.00,,,0.00,Wunderground v.1.15,2013-04-29 00:10:00,
2013-04-28 20:12:00,60.0,38.6,30.18,South,179,1.0,1.0,45,0.00,,,0.00,Wunderground v.1.15,2013-04-29 00:12:00,
2013-04-28 20:14:00,59.8,39.0,30.19,South,169,1.0,1.0,46,0.00,,,0.00,Wunderground v.1.15,2013-04-29 00:14:00,
2013-04-28 20:18:00,59.7,38.9,30.19,SSE,154,2.0,4.0,46,0.00,,,0.00,Wunderground v.1.15,2013-04-29 00:18:00,
2013-04-28 20:22:00,59.8,38.4,30.19,South,170,3.0,10.0,45,0.00,,,0.00,Wunderground v.1.15,2013-04-29 00:22:00,
2013-04-28 20:24:00,59.8,39.5,30.19,SSE,167,4.0,10.0,47,0.00,,,0.00,Wunderground v.1.15,2013-04-29 00:24:00,
2013-04-28 20:26:00,59.8,38.4,30.19,SW,215,4.0,10.0,45,0.00,,,0.00,Wunderground v.1.15,2013-04-29 00:26:00,
2013-04-28 20:28:00,59.8,38.4,30.19,SE,132,4.0,10.0,45,0.00,,,0.00,Wunderground v.1.15,2013-04-29 00:28:00,
2013-04-28 20:30:00,59.7,38.9,30.19,SSE,160,4.0,5.0,46,0.00,,,0.00,Wunderground v.1.15,2013-04-29 00:30:00,
2013-04-28 20:36:00,59.7,38.9,30.19,South,173,3.0,5.0,46,0.00,,,0.00,Wunderground v.1.15,2013-04-29 00:36:00,
2013-04-28 20:38:00,59.5,38.7,30.20,South,171,3.0,6.0,46,0.00,,,0.00,Wunderground v.1.15,2013-04-29 00:38:00,
2013-04-28 20:40:00,59.4,38.6,30.19,South,175,2.0,2.0,46,0.00,,,0.00,Wunderground v.1.15,2013-04-29 00:40:00,
2013-04-28 20:44:00,59.0,39.3,30.20,South,173,1.0,2.0,48,0.00,,,0.00,Wunderground v.1.15,2013-04-29 00:44:00,
2013-04-28 20:46:00,58.9,38.7,30.20,SSE,164,1.0,2.0,47,0.00,,,0.00,Wunderground v.1.15,2013-04-29 00:46:00,
2013-04-28 20:52:00,58.8,38.1,30.20,SSE,164,1.0,5.0,46,0.00,,,0.00,Wunderground v.1.15,2013-04-29 00:52:00,
2013-04-28 20:54:00,58.8,38.6,30.20,South,179,2.0,5.0,47,0.00,,,0.00,Wunderground v.1.15,2013-04-29 00:54:00,
2013-04-28 20:58:00,58.9,39.2,30.20,SSE,151,2.0,5.0,48,0.00,,,0.00,Wunderground v.1.15,2013-04-29 00:58:00,
2013-04-28 21:04:00,58.7,38.5,30.20,South,176,2.0,3.0,47,0.00,,,0.00,Wunderground v.1.15,2013-04-29 01:04:00,
2013-04-28 21:06:00,58.5,37.8,30.20,SSW,205,2.0,5.0,46,0.00,,,0.00,Wunderground v.1.15,2013-04-29 01:06:00,
2013-04-28 21:08:00,58.5,37.8,30.21,SSE,157,2.0,5.0,46,0.00,,,0.00,Wunderground v.1.15,2013-04-29 01:08:00,
2013-04-28 21:10:00,58.6,37.3,30.21,South,175,3.0,3.0,45,0.00,,,0.00,Wunderground v.1.15,2013-04-29 01:10:00,
2013-04-28 21:12:00,58.6,37.3,30.21,SE,134,2.0,3.0,45,0.00,,,0.00,Wunderground v.1.15,2013-04-29 01:12:00,
2013-04-28 21:16:00,58.4,37.7,30.20,South,172,2.0,3.0,46,0.00,,,0.00,Wunderground v.1.15,2013-04-29 01:16:00,
2013-04-28 21:18:00,58.3,37.6,30.21,SSE,165,1.0,3.0,46,0.00,,,0.00,Wunderground v.1.15,2013-04-29 01:18:00,
2013-04-28 21:20:00,58.2,38.6,30.21,SSE,165,0.0,0.0,48,0.00,,,0.00,Wunderground v.1.15,2013-04-29 01:20:00,
2013-04-28 21:22:00,58.0,37.3,30.20,South,175,0.0,0.0,46,0.00,,,0.00,Wunderground v.1.15,2013-04-29 01:22:00,
2013-04-28 21:24:00,58.0,36.8,30.20,SSE,167,1.0,1.0,45,0.00,,,0.00,Wunderground v.1.15,2013-04-29 01:24:00,
2013-04-28 21:26:00,57.9,37.8,30.21,SSE,154,1.0,3.0,47,0.00,,,0.00,Wunderground v.1.15,2013-04-29 01:26:00,
2013-04-28 21:28:00,57.8,37.7,30.20,SSE,161,1.0,3.0,47,0.00,,,0.00,Wunderground v.1.15,2013-04-29 01:28:00,
2013-04-28 21:30:00,57.8,37.7,30.21,SSE,162,2.0,4.0,47,0.00,,,0.00,Wunderground v.1.15,2013-04-29 01:30:00,
2013-04-28 21:32:00,57.7,37.6,30.21,SSE,162,3.0,6.0,47,0.00,,,0.00,Wunderground v.1.15,2013-04-29 01:32:00,
2013-04-28 21:34:00,57.8,36.6,30.21,SSE,153,3.0,6.0,45,0.00,,,0.00,Wunderground v.1.15,2013-04-29 01:34:00,
2013-04-28 21:38:00,57.9,36.7,30.21,South,182,3.0,6.0,45,0.00,,,0.00,Wunderground v.1.15,2013-04-29 01:38:00,
2013-04-28 21:40:00,57.9,36.7,30.21,South,183,4.0,5.0,45,0.00,,,0.00,Wunderground v.1.15,2013-04-29 01:40:00,
2013-04-28 21:42:00,57.8,37.1,30.21,SE,146,3.0,5.0,46,0.00,,,0.00,Wunderground v.1.15,2013-04-29 01:42:00,
2013-04-28 21:46:00,57.8,36.6,30.21,ESE,117,3.0,6.0,45,0.00,,,0.00,Wunderground v.1.15,2013-04-29 01:46:00,
2013-04-28 21:48:00,57.7,37.0,30.21,SSE,151,3.0,6.0,46,0.00,,,0.00,Wunderground v.1.15,2013-04-29 01:48:00,
2013-04-28 21:52:00,57.6,36.4,30.21,South,186,3.0,5.0,45,0.00,,,0.00,Wunderground v.1.15,2013-04-29 01:52:00,
2013-04-28 21:54:00,57.7,36.5,30.21,SSE,163,3.0,5.0,45,0.00,,,0.00,Wunderground v.1.15,2013-04-29 01:54:00,
2013-04-28 22:00:00,57.6,36.4,30.22,South,180,3.0,3.0,45,0.00,,,0.00,Wunderground v.1.15,2013-04-29 02:00:00,
2013-04-28 22:04:00,57.4,36.8,30.22,South,179,2.0,4.0,46,0.00,,,0.00,Wunderground v.1.15,2013-04-29 02:04:00,
2013-04-28 22:06:00,57.3,36.7,30.22,SE,136,2.0,4.0,46,0.00,,,0.00,Wunderground v.1.15,2013-04-29 02:06:00,
2013-04-28 22:08:00,57.1,36.5,30.22,South,169,2.0,6.0,46,0.00,,,0.00,Wunderground v.1.15,2013-04-29 02:08:00,
2013-04-28 22:12:00,57.2,37.1,30.22,SSE,152,3.0,3.0,47,0.00,,,0.00,Wunderground v.1.15,2013-04-29 02:12:00,
2013-04-28 22:14:00,57.2,36.6,30.22,SSE,164,3.0,4.0,46,0.00,,,0.00,Wunderground v.1.15,2013-04-29 02:14:00,
2013-04-28 22:18:00,57.1,37.6,30.22,SSE,151,3.0,4.0,48,0.00,,,0.00,Wunderground v.1.15,2013-04-29 02:18:00,
2013-04-28 22:20:00,57.0,37.0,30.22,South,189,3.0,4.0,47,0.00,,,0.00,Wunderground v.1.15,2013-04-29 02:20:00,
2013-04-28 22:22:00,57.0,36.4,30.23,South,180,3.0,4.0,46,0.00,,,0.00,Wunderground v.1.15,2013-04-29 02:22:00,
2013-04-28 22:24:00,57.1,36.5,30.22,SSE,154,3.0,4.0,46,0.00,,,0.00,Wunderground v.1.15,2013-04-29 02:24:00,
2013-04-28 22:28:00,57.1,35.9,30.23,SSW,195,4.0,5.0,45,0.00,,,0.00,Wunderground v.1.15,2013-04-29 02:28:00,
2013-04-28 22:30:00,57.1,36.5,30.23,South,172,5.0,5.0,46,0.00,,,0.00,Wunderground v.1.15,2013-04-29 02:30:00,
2013-04-28 22:32:00,57.1,36.5,30.23,SSE,165,4.0,5.0,46,0.00,,,0.00,Wunderground v.1.15,2013-04-29 02:32:00,
2013-04-28 22:34:00,57.0,35.9,30.23,SE,142,4.0,5.0,45,0.00,,,0.00,Wunderground v.1.15,2013-04-29 02:34:00,
2013-04-28 22:38:00,56.9,36.3,30.23,SSE,168,4.0,11.0,46,0.00,,,0.00,Wunderground v.1.15,2013-04-29 02:38:00,
2013-04-28 22:40:00,56.9,35.8,30.23,SSE,154,4.0,4.0,45,0.00,,,0.00,Wunderground v.1.15,2013-04-29 02:40:00,
2013-04-28 22:42:00,56.9,36.3,30.23,SSE,157,5.0,5.0,46,0.00,,,0.00,Wunderground v.1.15,2013-04-29 02:42:00,
2013-04-28 22:44:00,56.8,35.7,30.23,South,176,5.0,5.0,45,0.00,,,0.00,Wunderground v.1.15,2013-04-29 02:44:00,
2013-04-28 22:50:00,56.5,36.5,30.23,South,169,3.0,3.0,47,0.00,,,0.00,Wunderground v.1.15,2013-04-29 02:50:00,
2013-04-28 22:52:00,56.3,36.3,30.23,SSE,165,3.0,3.0,47,0.00,,,0.00,Wunderground v.1.15,2013-04-29 02:52:00,
2013-04-28 22:54:00,56.2,35.7,30.23,South,169,2.0,3.0,46,0.00,,,0.00,Wunderground v.1.15,2013-04-29 02:54:00,
2013-04-28 22:58:00,56.2,35.1,30.23,SSE,163,2.0,5.0,45,0.00,,,0.00,Wunderground v.1.15,2013-04-29 02:58:00,
2013-04-28 23:00:00,56.2,35.7,30.23,South,169,2.0,3.0,46,0.00,,,0.00,Wunderground v.1.15,2013-04-29 03:00:00,
2013-04-28 23:04:00,56.1,35.0,30.23,South,169,3.0,6.0,45,0.00,,,0.00,Wunderground v.1.15,2013-04-29 03:04:00,
2013-04-28 23:06:00,56.2,35.1,30.23,South,178,3.0,6.0,45,0.00,,,0.00,Wunderground v.1.15,2013-04-29 03:06:00,
2013-04-28 23:10:00,56.0,36.0,30.23,South,181,2.0,4.0,47,0.00,,,0.00,Wunderground v.1.15,2013-04-29 03:10:00,
2013-04-28 23:14:00,55.9,35.4,30.24,South,180,2.0,4.0,46,0.00,,,0.00,Wunderground v.1.15,2013-04-29 03:14:00,
2013-04-28 23:18:00,55.8,34.8,30.23,SSE,166,3.0,4.0,45,0.00,,,0.00,Wunderground v.1.15,2013-04-29 03:18:00,
2013-04-28 23:20:00,55.9,35.9,30.23,SSW,198,3.0,6.0,47,0.00,,,0.00,Wunderground v.1.15,2013-04-29 03:20:00,
2013-04-28 23:22:00,55.9,35.9,30.23,SSW,199,3.0,6.0,47,0.00,,,0.00,Wunderground v.1.15,2013-04-29 03:22:00,
2013-04-28 23:24:00,55.8,36.4,30.23,South,191,4.0,6.0,48,0.00,,,0.00,Wunderground v.1.15,2013-04-29 03:24:00,
2013-04-28 23:28:00,55.7,36.3,30.23,SSW,194,4.0,6.0,48,0.00,,,0.00,Wunderground v.1.15,2013-04-29 03:28:00,
2013-04-28 23:30:00,55.6,36.2,30.23,SSE,161,4.0,4.0,48,0.00,,,0.00,Wunderground v.1.15,2013-04-29 03:30:00,
2013-04-28 23:34:00,55.5,37.1,30.24,SSE,167,3.0,4.0,50,0.00,,,0.00,Wunderground v.1.15,2013-04-29 03:34:00,
2013-04-28 23:36:00,55.3,36.5,30.23,SSE,167,2.0,4.0,49,0.00,,,0.00,Wunderground v.1.15,2013-04-29 03:36:00,
2013-04-28 23:42:00,55.0,38.2,30.23,SSE,167,0.0,0.0,53,0.00,,,0.00,Wunderground v.1.15,2013-04-29 03:42:00,
2013-04-28 23:44:00,54.7,36.9,30.23,South,188,0.0,0.0,51,0.00,,,0.00,Wunderground v.1.15,2013-04-29 03:44:00,
2013-04-28 23:48:00,54.6,36.8,30.23,South,188,0.0,0.0,51,0.00,,,0.00,Wunderground v.1.15,2013-04-29 03:48:00,
2013-04-28 23:52:00,54.3,38.0,30.24,South,173,0.0,0.0,54,0.00,,,0.00,Wunderground v.1.15,2013-04-29 03:52:00,
2013-04-28 23:54:00,54.1,37.8,30.24,South,172,0.0,0.0,54,0.00,,,0.00,Wunderground v.1.15,2013-04-29 03:54:00,
2013-04-28 23:56:00,54.1,36.9,30.24,South,177,0.0,0.0,52,0.00,,,0.00,Wunderground v.1.15,2013-04-29 03:56:00,
2013-04-28 23:58:00,54.0,37.7,30.24,SSE,159,1.0,1.0,54,0.00,,,0.00,Wunderground v.1.15,2013-04-29 03:58:00,